sensor_id;sensor_type;location;lat;lon;timestamp;P1;durP1;ratioP1;P2;durP2;ratioP2
16450;SDS011;12243;42.708;23.310;2024-01-10T00:00:14;3.90;;;2.87;;
16450;SDS011;12243;42.708;23.310;2024-01-10T00:02:41;3.90;;;2.30;;
16450;SDS011;12243;42.708;23.310;2024-01-10T00:05:08;2.70;;;2.50;;
16450;SDS011;12243;42.708;23.310;2024-01-10T00:07:35;2.83;;;2.63;;
16450;SDS011;12243;42.708;23.310;2024-01-10T00:10:04;4.70;;;2.23;;
16450;SDS011;12243;42.708;23.310;2024-01-10T00:12:31;2.90;;;2.70;;
16450;SDS011;12243;42.708;23.310;2024-01-10T00:15:01;3.07;;;2.80;;
16450;SDS011;12243;42.708;23.310;2024-01-10T00:17:28;2.77;;;2.53;;
16450;SDS011;12243;42.708;23.310;2024-01-10T00:19:55;3.03;;;2.83;;
16450;SDS011;12243;42.708;23.310;2024-01-10T00:22:22;3.40;;;3.10;;
16450;SDS011;12243;42.708;23.310;2024-01-10T00:24:49;3.47;;;3.13;;
16450;SDS011;12243;42.708;23.310;2024-01-10T00:27:17;2.87;;;2.20;;
16450;SDS011;12243;42.708;23.310;2024-01-10T00:29:44;2.60;;;2.40;;
16450;SDS011;12243;42.708;23.310;2024-01-10T00:32:10;2.70;;;2.50;;
16450;SDS011;12243;42.708;23.310;2024-01-10T00:34:37;1.93;;;1.83;;
16450;SDS011;12243;42.708;23.310;2024-01-10T00:37:04;3.17;;;2.60;;
16450;SDS011;12243;42.708;23.310;2024-01-10T00:39:31;2.90;;;2.53;;
16450;SDS011;12243;42.708;23.310;2024-01-10T00:41:58;3.83;;;2.80;;
16450;SDS011;12243;42.708;23.310;2024-01-10T00:44:26;2.80;;;2.37;;
16450;SDS011;12243;42.708;23.310;2024-01-10T00:46:53;3.77;;;2.70;;
16450;SDS011;12243;42.708;23.310;2024-01-10T00:49:19;2.97;;;2.27;;
16450;SDS011;12243;42.708;23.310;2024-01-10T00:51:46;2.50;;;2.30;;
16450;SDS011;12243;42.708;23.310;2024-01-10T00:54:13;5.83;;;3.53;;
16450;SDS011;12243;42.708;23.310;2024-01-10T00:56:40;5.53;;;2.57;;
16450;SDS011;12243;42.708;23.310;2024-01-10T00:59:06;6.10;;;3.70;;
16450;SDS011;12243;42.708;23.310;2024-01-10T01:01:35;4.93;;;3.37;;
16450;SDS011;12243;42.708;23.310;2024-01-10T01:04:01;3.37;;;2.80;;
16450;SDS011;12243;42.708;23.310;2024-01-10T01:06:28;5.03;;;2.97;;
16450;SDS011;12243;42.708;23.310;2024-01-10T01:08:55;2.53;;;2.33;;
16450;SDS011;12243;42.708;23.310;2024-01-10T01:11:23;2.80;;;2.57;;
16450;SDS011;12243;42.708;23.310;2024-01-10T01:13:50;2.70;;;2.50;;
16450;SDS011;12243;42.708;23.310;2024-01-10T01:16:17;4.53;;;2.80;;
16450;SDS011;12243;42.708;23.310;2024-01-10T01:18:45;3.20;;;2.90;;
16450;SDS011;12243;42.708;23.310;2024-01-10T01:21:12;2.90;;;2.50;;
16450;SDS011;12243;42.708;23.310;2024-01-10T01:23:39;4.40;;;2.73;;
16450;SDS011;12243;42.708;23.310;2024-01-10T01:26:06;7.77;;;3.43;;
16450;SDS011;12243;42.708;23.310;2024-01-10T01:28:32;23.80;;;7.83;;
16450;SDS011;12243;42.708;23.310;2024-01-10T01:31:00;7.43;;;4.30;;
16450;SDS011;12243;42.708;23.310;2024-01-10T01:33:27;5.80;;;2.97;;
16450;SDS011;12243;42.708;23.310;2024-01-10T01:35:55;3.70;;;2.80;;
16450;SDS011;12243;42.708;23.310;2024-01-10T01:38:22;4.27;;;2.63;;
16450;SDS011;12243;42.708;23.310;2024-01-10T01:40:48;3.87;;;3.07;;
16450;SDS011;12243;42.708;23.310;2024-01-10T01:43:19;4.00;;;2.73;;
16450;SDS011;12243;42.708;23.310;2024-01-10T01:45:47;3.17;;;2.83;;
16450;SDS011;12243;42.708;23.310;2024-01-10T01:48:16;3.30;;;2.70;;
16450;SDS011;12243;42.708;23.310;2024-01-10T01:50:44;2.43;;;2.23;;
16450;SDS011;12243;42.708;23.310;2024-01-10T01:53:12;2.20;;;2.10;;
16450;SDS011;12243;42.708;23.310;2024-01-10T01:55:40;3.00;;;2.50;;
16450;SDS011;12243;42.708;23.310;2024-01-10T01:58:07;2.50;;;2.30;;
16450;SDS011;12243;42.708;23.310;2024-01-10T02:00:34;3.63;;;2.20;;
16450;SDS011;12243;42.708;23.310;2024-01-10T02:03:02;5.10;;;1.90;;
16450;SDS011;12243;42.708;23.310;2024-01-10T02:05:31;2.27;;;2.07;;
16450;SDS011;12243;42.708;23.310;2024-01-10T02:07:58;2.53;;;2.03;;
16450;SDS011;12243;42.708;23.310;2024-01-10T02:10:26;1.97;;;1.80;;
16450;SDS011;12243;42.708;23.310;2024-01-10T02:12:53;2.77;;;2.10;;
16450;SDS011;12243;42.708;23.310;2024-01-10T02:15:20;3.80;;;2.33;;
16450;SDS011;12243;42.708;23.310;2024-01-10T02:17:47;2.07;;;1.87;;
16450;SDS011;12243;42.708;23.310;2024-01-10T02:20:15;3.73;;;1.73;;
16450;SDS011;12243;42.708;23.310;2024-01-10T02:22:43;3.83;;;2.50;;
16450;SDS011;12243;42.708;23.310;2024-01-10T02:25:11;2.80;;;2.43;;
16450;SDS011;12243;42.708;23.310;2024-01-10T02:27:39;2.10;;;2.00;;
16450;SDS011;12243;42.708;23.310;2024-01-10T02:30:06;2.23;;;2.03;;
16450;SDS011;12243;42.708;23.310;2024-01-10T02:32:36;2.47;;;2.27;;
16450;SDS011;12243;42.708;23.310;2024-01-10T02:35:03;3.77;;;2.13;;
16450;SDS011;12243;42.708;23.310;2024-01-10T02:37:30;1.77;;;1.67;;
16450;SDS011;12243;42.708;23.310;2024-01-10T02:39:57;1.67;;;1.57;;
16450;SDS011;12243;42.708;23.310;2024-01-10T02:42:26;1.93;;;1.53;;
16450;SDS011;12243;42.708;23.310;2024-01-10T02:44:53;2.20;;;2.00;;
16450;SDS011;12243;42.708;23.310;2024-01-10T02:47:20;2.50;;;1.77;;
16450;SDS011;12243;42.708;23.310;2024-01-10T02:49:49;2.43;;;1.50;;
16450;SDS011;12243;42.708;23.310;2024-01-10T02:52:15;1.37;;;1.27;;
16450;SDS011;12243;42.708;23.310;2024-01-10T02:54:44;1.23;;;1.23;;
16450;SDS011;12243;42.708;23.310;2024-01-10T02:57:11;1.97;;;1.80;;
16450;SDS011;12243;42.708;23.310;2024-01-10T02:59:39;2.13;;;2.00;;
16450;SDS011;12243;42.708;23.310;2024-01-10T03:02:06;2.80;;;2.00;;
16450;SDS011;12243;42.708;23.310;2024-01-10T03:04:33;8.17;;;2.80;;
16450;SDS011;12243;42.708;23.310;2024-01-10T03:07:00;2.57;;;2.37;;
16450;SDS011;12243;42.708;23.310;2024-01-10T03:09:27;3.07;;;2.80;;
16450;SDS011;12243;42.708;23.310;2024-01-10T03:11:54;3.47;;;3.00;;
16450;SDS011;12243;42.708;23.310;2024-01-10T03:14:21;3.83;;;3.03;;
16450;SDS011;12243;42.708;23.310;2024-01-10T03:16:49;4.33;;;2.80;;
16450;SDS011;12243;42.708;23.310;2024-01-10T03:19:16;4.43;;;3.00;;
16450;SDS011;12243;42.708;23.310;2024-01-10T03:21:43;5.10;;;3.67;;
16450;SDS011;12243;42.708;23.310;2024-01-10T03:24:10;2.80;;;2.57;;
16450;SDS011;12243;42.708;23.310;2024-01-10T03:26:37;2.93;;;2.73;;
16450;SDS011;12243;42.708;23.310;2024-01-10T03:29:03;5.20;;;2.73;;
16450;SDS011;12243;42.708;23.310;2024-01-10T03:31:30;4.23;;;2.40;;
16450;SDS011;12243;42.708;23.310;2024-01-10T03:33:58;2.53;;;2.30;;
16450;SDS011;12243;42.708;23.310;2024-01-10T03:36:25;1.93;;;1.73;;
16450;SDS011;12243;42.708;23.310;2024-01-10T03:38:52;2.63;;;2.43;;
16450;SDS011;12243;42.708;23.310;2024-01-10T03:41:20;2.00;;;1.90;;
16450;SDS011;12243;42.708;23.310;2024-01-10T03:43:47;2.10;;;2.00;;
16450;SDS011;12243;42.708;23.310;2024-01-10T03:46:15;2.23;;;1.83;;
16450;SDS011;12243;42.708;23.310;2024-01-10T03:48:42;5.03;;;2.17;;
16450;SDS011;12243;42.708;23.310;2024-01-10T03:51:15;2.43;;;2.20;;
16450;SDS011;12243;42.708;23.310;2024-01-10T03:53:42;3.30;;;2.53;;
16450;SDS011;12243;42.708;23.310;2024-01-10T03:56:09;2.37;;;2.17;;
16450;SDS011;12243;42.708;23.310;2024-01-10T03:58:36;5.43;;;2.17;;
16450;SDS011;12243;42.708;23.310;2024-01-10T04:01:06;5.97;;;3.60;;
16450;SDS011;12243;42.708;23.310;2024-01-10T04:03:33;4.70;;;3.57;;
16450;SDS011;12243;42.708;23.310;2024-01-10T04:06:00;4.50;;;3.63;;
16450;SDS011;12243;42.708;23.310;2024-01-10T04:08:29;3.23;;;2.93;;
16450;SDS011;12243;42.708;23.310;2024-01-10T04:10:56;4.80;;;2.57;;
16450;SDS011;12243;42.708;23.310;2024-01-10T04:13:32;2.50;;;2.29;;
16450;SDS011;12243;42.708;23.310;2024-01-10T04:15:59;3.03;;;2.40;;
16450;SDS011;12243;42.708;23.310;2024-01-10T04:18:26;2.90;;;2.63;;
16450;SDS011;12243;42.708;23.310;2024-01-10T04:20:53;3.93;;;2.87;;
16450;SDS011;12243;42.708;23.310;2024-01-10T04:23:20;6.17;;;2.77;;
16450;SDS011;12243;42.708;23.310;2024-01-10T04:25:49;3.33;;;2.93;;
16450;SDS011;12243;42.708;23.310;2024-01-10T04:28:16;3.40;;;2.97;;
16450;SDS011;12243;42.708;23.310;2024-01-10T04:30:43;3.17;;;2.90;;
16450;SDS011;12243;42.708;23.310;2024-01-10T04:33:10;2.30;;;2.20;;
16450;SDS011;12243;42.708;23.310;2024-01-10T04:35:36;2.37;;;2.27;;
16450;SDS011;12243;42.708;23.310;2024-01-10T04:38:03;2.57;;;2.37;;
16450;SDS011;12243;42.708;23.310;2024-01-10T04:40:30;5.33;;;2.57;;
16450;SDS011;12243;42.708;23.310;2024-01-10T04:42:58;2.30;;;2.00;;
16450;SDS011;12243;42.708;23.310;2024-01-10T04:45:25;2.57;;;2.37;;
16450;SDS011;12243;42.708;23.310;2024-01-10T04:47:52;2.30;;;1.50;;
16450;SDS011;12243;42.708;23.310;2024-01-10T04:50:19;1.97;;;1.53;;
16450;SDS011;12243;42.708;23.310;2024-01-10T04:52:46;2.13;;;1.97;;
16450;SDS011;12243;42.708;23.310;2024-01-10T04:55:13;2.40;;;2.20;;
16450;SDS011;12243;42.708;23.310;2024-01-10T04:57:39;1.80;;;1.70;;
16450;SDS011;12243;42.708;23.310;2024-01-10T05:00:08;6.90;;;3.20;;
16450;SDS011;12243;42.708;23.310;2024-01-10T05:02:35;3.17;;;2.60;;
16450;SDS011;12243;42.708;23.310;2024-01-10T05:05:02;7.40;;;2.73;;
16450;SDS011;12243;42.708;23.310;2024-01-10T05:07:30;2.47;;;2.27;;
16450;SDS011;12243;42.708;23.310;2024-01-10T05:09:56;6.33;;;3.23;;
16450;SDS011;12243;42.708;23.310;2024-01-10T05:12:23;5.90;;;3.57;;
16450;SDS011;12243;42.708;23.310;2024-01-10T05:14:50;6.27;;;3.57;;
16450;SDS011;12243;42.708;23.310;2024-01-10T05:17:18;7.23;;;3.20;;
16450;SDS011;12243;42.708;23.310;2024-01-10T05:19:45;3.13;;;2.00;;
16450;SDS011;12243;42.708;23.310;2024-01-10T05:22:12;3.00;;;2.40;;
16450;SDS011;12243;42.708;23.310;2024-01-10T05:24:39;6.27;;;2.50;;
16450;SDS011;12243;42.708;23.310;2024-01-10T05:27:06;5.07;;;2.33;;
16450;SDS011;12243;42.708;23.310;2024-01-10T05:29:33;2.23;;;2.00;;
16450;SDS011;12243;42.708;23.310;2024-01-10T05:32:00;2.00;;;1.80;;
16450;SDS011;12243;42.708;23.310;2024-01-10T05:34:28;2.63;;;2.43;;
16450;SDS011;12243;42.708;23.310;2024-01-10T05:36:55;3.17;;;2.20;;
16450;SDS011;12243;42.708;23.310;2024-01-10T05:39:22;3.40;;;2.00;;
16450;SDS011;12243;42.708;23.310;2024-01-10T05:41:48;4.63;;;1.80;;
16450;SDS011;12243;42.708;23.310;2024-01-10T05:44:16;1.60;;;1.50;;
16450;SDS011;12243;42.708;23.310;2024-01-10T05:46:46;3.77;;;2.33;;
16450;SDS011;12243;42.708;23.310;2024-01-10T05:49:13;5.63;;;2.33;;
16450;SDS011;12243;42.708;23.310;2024-01-10T05:51:41;3.27;;;2.53;;
16450;SDS011;12243;42.708;23.310;2024-01-10T05:54:08;12.43;;;7.67;;
16450;SDS011;12243;42.708;23.310;2024-01-10T05:56:35;7.47;;;4.40;;
16450;SDS011;12243;42.708;23.310;2024-01-10T05:59:02;5.33;;;3.57;;
16450;SDS011;12243;42.708;23.310;2024-01-10T06:01:29;6.23;;;3.53;;
16450;SDS011;12243;42.708;23.310;2024-01-10T06:03:56;5.90;;;3.27;;
16450;SDS011;12243;42.708;23.310;2024-01-10T06:06:22;6.77;;;3.00;;
16450;SDS011;12243;42.708;23.310;2024-01-10T06:08:51;3.97;;;3.30;;
16450;SDS011;12243;42.708;23.310;2024-01-10T06:11:18;3.97;;;3.10;;
16450;SDS011;12243;42.708;23.310;2024-01-10T06:13:45;3.20;;;2.67;;
16450;SDS011;12243;42.708;23.310;2024-01-10T06:16:13;7.33;;;3.20;;
16450;SDS011;12243;42.708;23.310;2024-01-10T06:18:40;6.23;;;3.10;;
16450;SDS011;12243;42.708;23.310;2024-01-10T06:21:06;9.37;;;3.90;;
16450;SDS011;12243;42.708;23.310;2024-01-10T06:23:36;2.57;;;2.37;;
16450;SDS011;12243;42.708;23.310;2024-01-10T06:26:04;2.00;;;1.90;;
16450;SDS011;12243;42.708;23.310;2024-01-10T06:28:31;2.60;;;2.40;;
16450;SDS011;12243;42.708;23.310;2024-01-10T06:30:58;3.37;;;2.80;;
16450;SDS011;12243;42.708;23.310;2024-01-10T06:33:25;5.63;;;3.60;;
16450;SDS011;12243;42.708;23.310;2024-01-10T06:35:52;7.97;;;3.40;;
16450;SDS011;12243;42.708;23.310;2024-01-10T06:38:19;6.33;;;3.87;;
16450;SDS011;12243;42.708;23.310;2024-01-10T06:40:47;3.80;;;3.37;;
16450;SDS011;12243;42.708;23.310;2024-01-10T06:43:17;5.60;;;3.37;;
16450;SDS011;12243;42.708;23.310;2024-01-10T06:45:44;6.13;;;2.93;;
16450;SDS011;12243;42.708;23.310;2024-01-10T06:48:11;5.17;;;3.33;;
16450;SDS011;12243;42.708;23.310;2024-01-10T06:50:38;5.87;;;2.73;;
16450;SDS011;12243;42.708;23.310;2024-01-10T06:53:05;8.87;;;3.87;;
16450;SDS011;12243;42.708;23.310;2024-01-10T06:55:32;4.97;;;3.40;;
16450;SDS011;12243;42.708;23.310;2024-01-10T06:57:59;8.63;;;3.20;;
16450;SDS011;12243;42.708;23.310;2024-01-10T07:00:27;9.47;;;3.23;;
16450;SDS011;12243;42.708;23.310;2024-01-10T07:02:55;10.40;;;3.50;;
16450;SDS011;12243;42.708;23.310;2024-01-10T07:05:21;5.33;;;3.43;;
16450;SDS011;12243;42.708;23.310;2024-01-10T07:07:48;9.03;;;3.90;;
16450;SDS011;12243;42.708;23.310;2024-01-10T07:10:15;4.33;;;3.40;;
16450;SDS011;12243;42.708;23.310;2024-01-10T07:12:42;8.47;;;3.50;;
16450;SDS011;12243;42.708;23.310;2024-01-10T07:15:09;5.77;;;3.53;;
16450;SDS011;12243;42.708;23.310;2024-01-10T07:17:38;3.23;;;2.93;;
16450;SDS011;12243;42.708;23.310;2024-01-10T07:20:06;10.40;;;3.37;;
16450;SDS011;12243;42.708;23.310;2024-01-10T07:22:37;7.97;;;3.60;;
16450;SDS011;12243;42.708;23.310;2024-01-10T07:25:06;14.03;;;3.80;;
16450;SDS011;12243;42.708;23.310;2024-01-10T07:27:34;5.70;;;3.60;;
16450;SDS011;12243;42.708;23.310;2024-01-10T07:30:03;4.60;;;3.23;;
16450;SDS011;12243;42.708;23.310;2024-01-10T07:32:36;10.00;;;3.90;;
16450;SDS011;12243;42.708;23.310;2024-01-10T07:35:05;7.63;;;3.47;;
16450;SDS011;12243;42.708;23.310;2024-01-10T07:37:34;8.13;;;5.00;;
16450;SDS011;12243;42.708;23.310;2024-01-10T07:40:01;4.60;;;3.47;;
16450;SDS011;12243;42.708;23.310;2024-01-10T07:42:30;8.37;;;4.57;;
16450;SDS011;12243;42.708;23.310;2024-01-10T07:44:57;7.70;;;4.80;;
16450;SDS011;12243;42.708;23.310;2024-01-10T07:47:24;9.23;;;3.73;;
16450;SDS011;12243;42.708;23.310;2024-01-10T07:49:52;9.00;;;4.33;;
16450;SDS011;12243;42.708;23.310;2024-01-10T07:52:19;6.47;;;3.57;;
16450;SDS011;12243;42.708;23.310;2024-01-10T07:54:46;6.40;;;3.83;;
16450;SDS011;12243;42.708;23.310;2024-01-10T07:57:13;8.93;;;5.30;;
16450;SDS011;12243;42.708;23.310;2024-01-10T07:59:40;10.40;;;5.77;;
16450;SDS011;12243;42.708;23.310;2024-01-10T08:02:07;9.10;;;5.10;;
16450;SDS011;12243;42.708;23.310;2024-01-10T08:04:35;7.73;;;4.93;;
16450;SDS011;12243;42.708;23.310;2024-01-10T08:07:03;13.00;;;5.83;;
16450;SDS011;12243;42.708;23.310;2024-01-10T08:09:30;8.37;;;4.93;;
16450;SDS011;12243;42.708;23.310;2024-01-10T08:11:57;6.20;;;3.83;;
16450;SDS011;12243;42.708;23.310;2024-01-10T08:14:24;8.67;;;4.63;;
16450;SDS011;12243;42.708;23.310;2024-01-10T08:16:51;9.10;;;4.13;;
16450;SDS011;12243;42.708;23.310;2024-01-10T08:19:19;7.57;;;4.23;;
16450;SDS011;12243;42.708;23.310;2024-01-10T08:21:46;8.63;;;4.13;;
16450;SDS011;12243;42.708;23.310;2024-01-10T08:24:14;5.60;;;3.33;;
16450;SDS011;12243;42.708;23.310;2024-01-10T08:26:42;5.50;;;3.30;;
16450;SDS011;12243;42.708;23.310;2024-01-10T08:29:09;7.03;;;4.43;;
16450;SDS011;12243;42.708;23.310;2024-01-10T08:31:36;4.90;;;3.27;;
16450;SDS011;12243;42.708;23.310;2024-01-10T08:34:04;10.80;;;6.87;;
16450;SDS011;12243;42.708;23.310;2024-01-10T08:36:31;4.80;;;3.60;;
16450;SDS011;12243;42.708;23.310;2024-01-10T08:38:58;4.73;;;3.47;;
16450;SDS011;12243;42.708;23.310;2024-01-10T08:41:27;5.50;;;3.80;;
16450;SDS011;12243;42.708;23.310;2024-01-10T08:43:54;9.17;;;6.03;;
16450;SDS011;12243;42.708;23.310;2024-01-10T08:46:20;6.83;;;4.53;;
16450;SDS011;12243;42.708;23.310;2024-01-10T08:48:47;8.23;;;4.13;;
16450;SDS011;12243;42.708;23.310;2024-01-10T08:51:14;6.63;;;4.30;;
16450;SDS011;12243;42.708;23.310;2024-01-10T08:53:41;7.40;;;4.47;;
16450;SDS011;12243;42.708;23.310;2024-01-10T08:56:09;5.53;;;4.17;;
16450;SDS011;12243;42.708;23.310;2024-01-10T08:58:37;10.30;;;5.30;;
16450;SDS011;12243;42.708;23.310;2024-01-10T09:01:04;9.30;;;5.80;;
16450;SDS011;12243;42.708;23.310;2024-01-10T09:03:30;9.27;;;5.77;;
16450;SDS011;12243;42.708;23.310;2024-01-10T09:05:57;8.07;;;5.70;;
16450;SDS011;12243;42.708;23.310;2024-01-10T09:08:24;11.30;;;7.60;;
16450;SDS011;12243;42.708;23.310;2024-01-10T09:10:51;8.33;;;4.97;;
16450;SDS011;12243;42.708;23.310;2024-01-10T09:13:18;10.87;;;3.93;;
16450;SDS011;12243;42.708;23.310;2024-01-10T09:15:46;8.23;;;5.00;;
16450;SDS011;12243;42.708;23.310;2024-01-10T09:18:12;9.43;;;5.67;;
16450;SDS011;12243;42.708;23.310;2024-01-10T09:20:39;9.10;;;5.00;;
16450;SDS011;12243;42.708;23.310;2024-01-10T09:23:06;9.30;;;4.80;;
16450;SDS011;12243;42.708;23.310;2024-01-10T09:25:33;8.97;;;4.47;;
16450;SDS011;12243;42.708;23.310;2024-01-10T09:28:00;8.57;;;4.83;;
16450;SDS011;12243;42.708;23.310;2024-01-10T09:30:27;15.87;;;8.33;;
16450;SDS011;12243;42.708;23.310;2024-01-10T09:32:55;8.33;;;4.70;;
16450;SDS011;12243;42.708;23.310;2024-01-10T09:35:22;10.10;;;4.73;;
16450;SDS011;12243;42.708;23.310;2024-01-10T09:37:49;10.93;;;3.50;;
16450;SDS011;12243;42.708;23.310;2024-01-10T09:40:16;6.23;;;4.07;;
16450;SDS011;12243;42.708;23.310;2024-01-10T09:42:43;4.77;;;3.03;;
16450;SDS011;12243;42.708;23.310;2024-01-10T09:45:10;6.53;;;3.80;;
16450;SDS011;12243;42.708;23.310;2024-01-10T09:47:39;4.53;;;3.80;;
16450;SDS011;12243;42.708;23.310;2024-01-10T09:50:09;8.77;;;3.67;;
16450;SDS011;12243;42.708;23.310;2024-01-10T09:52:39;5.80;;;3.57;;
16450;SDS011;12243;42.708;23.310;2024-01-10T09:55:08;6.60;;;4.40;;
16450;SDS011;12243;42.708;23.310;2024-01-10T09:57:37;6.27;;;4.40;;
16450;SDS011;12243;42.708;23.310;2024-01-10T10:00:06;6.77;;;4.00;;
16450;SDS011;12243;42.708;23.310;2024-01-10T10:02:38;8.40;;;4.80;;
16450;SDS011;12243;42.708;23.310;2024-01-10T10:05:08;9.20;;;5.00;;
16450;SDS011;12243;42.708;23.310;2024-01-10T10:07:44;8.53;;;4.37;;
16450;SDS011;12243;42.708;23.310;2024-01-10T10:10:11;8.97;;;4.57;;
16450;SDS011;12243;42.708;23.310;2024-01-10T10:12:43;6.17;;;4.03;;
16450;SDS011;12243;42.708;23.310;2024-01-10T10:15:11;7.03;;;4.87;;
16450;SDS011;12243;42.708;23.310;2024-01-10T10:17:40;6.47;;;4.20;;
16450;SDS011;12243;42.708;23.310;2024-01-10T10:20:13;8.80;;;4.67;;
16450;SDS011;12243;42.708;23.310;2024-01-10T10:22:43;9.63;;;4.10;;
16450;SDS011;12243;42.708;23.310;2024-01-10T10:25:27;5.73;;;4.30;;
16450;SDS011;12243;42.708;23.310;2024-01-10T10:27:56;10.47;;;4.83;;
16450;SDS011;12243;42.708;23.310;2024-01-10T10:30:23;10.57;;;4.77;;
16450;SDS011;12243;42.708;23.310;2024-01-10T10:32:50;5.57;;;4.47;;
16450;SDS011;12243;42.708;23.310;2024-01-10T10:35:19;6.03;;;3.73;;
16450;SDS011;12243;42.708;23.310;2024-01-10T10:37:47;10.00;;;4.37;;
16450;SDS011;12243;42.708;23.310;2024-01-10T10:40:15;6.10;;;4.07;;
16450;SDS011;12243;42.708;23.310;2024-01-10T10:42:44;5.97;;;3.83;;
16450;SDS011;12243;42.708;23.310;2024-01-10T10:45:12;5.97;;;3.60;;
16450;SDS011;12243;42.708;23.310;2024-01-10T10:47:43;6.23;;;3.77;;
16450;SDS011;12243;42.708;23.310;2024-01-10T10:50:12;4.73;;;3.40;;
16450;SDS011;12243;42.708;23.310;2024-01-10T10:52:45;12.00;;;5.03;;
16450;SDS011;12243;42.708;23.310;2024-01-10T10:55:13;6.60;;;4.40;;
16450;SDS011;12243;42.708;23.310;2024-01-10T10:57:43;15.47;;;6.53;;
16450;SDS011;12243;42.708;23.310;2024-01-10T11:00:12;8.93;;;4.70;;
16450;SDS011;12243;42.708;23.310;2024-01-10T11:02:40;6.53;;;4.13;;
16450;SDS011;12243;42.708;23.310;2024-01-10T11:05:08;8.77;;;4.97;;
16450;SDS011;12243;42.708;23.310;2024-01-10T11:07:35;15.67;;;9.07;;
16450;SDS011;12243;42.708;23.310;2024-01-10T11:10:05;11.87;;;5.37;;
16450;SDS011;12243;42.708;23.310;2024-01-10T11:12:59;12.53;;;6.87;;
16450;SDS011;12243;42.708;23.310;2024-01-10T11:15:46;14.57;;;9.33;;
16450;SDS011;12243;42.708;23.310;2024-01-10T11:18:33;8.23;;;5.40;;
16450;SDS011;12243;42.708;23.310;2024-01-10T11:21:19;10.27;;;6.20;;
16450;SDS011;12243;42.708;23.310;2024-01-10T11:23:51;20.70;;;11.33;;
16450;SDS011;12243;42.708;23.310;2024-01-10T11:26:22;13.50;;;6.70;;
16450;SDS011;12243;42.708;23.310;2024-01-10T11:28:49;12.43;;;6.00;;
16450;SDS011;12243;42.708;23.310;2024-01-10T11:31:26;10.63;;;5.93;;
16450;SDS011;12243;42.708;23.310;2024-01-10T11:33:55;10.83;;;6.23;;
16450;SDS011;12243;42.708;23.310;2024-01-10T11:36:22;11.63;;;6.37;;
16450;SDS011;12243;42.708;23.310;2024-01-10T11:38:54;8.20;;;5.93;;
16450;SDS011;12243;42.708;23.310;2024-01-10T11:41:23;14.30;;;6.73;;
16450;SDS011;12243;42.708;23.310;2024-01-10T11:47:05;9.50;;;5.53;;
16450;SDS011;12243;42.708;23.310;2024-01-10T11:49:33;10.63;;;6.00;;
16450;SDS011;12243;42.708;23.310;2024-01-10T11:52:00;9.67;;;5.90;;
16450;SDS011;12243;42.708;23.310;2024-01-10T11:54:37;11.00;;;6.23;;
16450;SDS011;12243;42.708;23.310;2024-01-10T11:57:19;14.83;;;7.67;;
16450;SDS011;12243;42.708;23.310;2024-01-10T11:59:48;15.40;;;7.63;;
16450;SDS011;12243;42.708;23.310;2024-01-10T12:02:17;11.43;;;6.60;;
16450;SDS011;12243;42.708;23.310;2024-01-10T12:04:45;15.67;;;6.87;;
16450;SDS011;12243;42.708;23.310;2024-01-10T12:07:12;10.53;;;5.90;;
16450;SDS011;12243;42.708;23.310;2024-01-10T12:09:39;12.57;;;7.10;;
16450;SDS011;12243;42.708;23.310;2024-01-10T12:12:07;9.13;;;6.53;;
16450;SDS011;12243;42.708;23.310;2024-01-10T12:14:35;10.90;;;6.37;;
16450;SDS011;12243;42.708;23.310;2024-01-10T12:17:02;9.53;;;6.47;;
16450;SDS011;12243;42.708;23.310;2024-01-10T12:19:30;9.83;;;5.80;;
16450;SDS011;12243;42.708;23.310;2024-01-10T12:21:57;12.03;;;6.77;;
16450;SDS011;12243;42.708;23.310;2024-01-10T12:24:23;12.07;;;6.97;;
16450;SDS011;12243;42.708;23.310;2024-01-10T12:26:54;13.23;;;6.13;;
16450;SDS011;12243;42.708;23.310;2024-01-10T12:29:22;12.10;;;5.80;;
16450;SDS011;12243;42.708;23.310;2024-01-10T12:31:51;11.83;;;6.80;;
16450;SDS011;12243;42.708;23.310;2024-01-10T12:34:19;13.60;;;7.33;;
16450;SDS011;12243;42.708;23.310;2024-01-10T12:36:47;13.77;;;7.10;;
16450;SDS011;12243;42.708;23.310;2024-01-10T12:39:14;12.80;;;6.87;;
16450;SDS011;12243;42.708;23.310;2024-01-10T12:41:42;10.73;;;6.60;;
16450;SDS011;12243;42.708;23.310;2024-01-10T12:44:10;12.90;;;6.87;;
16450;SDS011;12243;42.708;23.310;2024-01-10T12:46:47;11.60;;;7.20;;
16450;SDS011;12243;42.708;23.310;2024-01-10T12:49:17;9.00;;;6.43;;
16450;SDS011;12243;42.708;23.310;2024-01-10T12:51:44;11.17;;;6.87;;
16450;SDS011;12243;42.708;23.310;2024-01-10T12:54:11;11.67;;;7.43;;
16450;SDS011;12243;42.708;23.310;2024-01-10T12:56:37;10.33;;;6.83;;
16450;SDS011;12243;42.708;23.310;2024-01-10T12:59:04;12.70;;;7.57;;
16450;SDS011;12243;42.708;23.310;2024-01-10T13:01:34;14.03;;;7.90;;
16450;SDS011;12243;42.708;23.310;2024-01-10T13:04:04;12.97;;;6.60;;
16450;SDS011;12243;42.708;23.310;2024-01-10T13:06:32;9.57;;;6.20;;
16450;SDS011;12243;42.708;23.310;2024-01-10T13:08:59;9.90;;;6.47;;
16450;SDS011;12243;42.708;23.310;2024-01-10T13:11:26;10.80;;;5.90;;
16450;SDS011;12243;42.708;23.310;2024-01-10T13:13:53;9.37;;;5.77;;
16450;SDS011;12243;42.708;23.310;2024-01-10T13:16:20;9.23;;;6.03;;
16450;SDS011;12243;42.708;23.310;2024-01-10T13:18:47;9.00;;;5.70;;
16450;SDS011;12243;42.708;23.310;2024-01-10T13:21:15;9.57;;;6.13;;
16450;SDS011;12243;42.708;23.310;2024-01-10T13:23:44;11.33;;;6.33;;
16450;SDS011;12243;42.708;23.310;2024-01-10T13:26:11;9.80;;;6.20;;
16450;SDS011;12243;42.708;23.310;2024-01-10T13:28:38;8.43;;;5.63;;
16450;SDS011;12243;42.708;23.310;2024-01-10T13:31:06;9.80;;;6.30;;
16450;SDS011;12243;42.708;23.310;2024-01-10T13:33:32;10.43;;;6.20;;
16450;SDS011;12243;42.708;23.310;2024-01-10T13:35:59;11.30;;;6.20;;
16450;SDS011;12243;42.708;23.310;2024-01-10T13:38:26;13.20;;;6.50;;
16450;SDS011;12243;42.708;23.310;2024-01-10T13:40:54;16.83;;;8.63;;
16450;SDS011;12243;42.708;23.310;2024-01-10T13:43:21;12.90;;;6.67;;
16450;SDS011;12243;42.708;23.310;2024-01-10T13:45:48;14.27;;;7.10;;
16450;SDS011;12243;42.708;23.310;2024-01-10T13:48:15;12.30;;;6.90;;
16450;SDS011;12243;42.708;23.310;2024-01-10T13:50:42;14.43;;;6.60;;
16450;SDS011;12243;42.708;23.310;2024-01-10T13:53:08;11.60;;;6.73;;
16450;SDS011;12243;42.708;23.310;2024-01-10T13:55:35;14.10;;;6.70;;
16450;SDS011;12243;42.708;23.310;2024-01-10T13:58:04;10.33;;;7.17;;
16450;SDS011;12243;42.708;23.310;2024-01-10T14:00:30;12.07;;;6.77;;
16450;SDS011;12243;42.708;23.310;2024-01-10T14:02:57;12.47;;;7.03;;
16450;SDS011;12243;42.708;23.310;2024-01-10T14:05:25;9.60;;;6.40;;
16450;SDS011;12243;42.708;23.310;2024-01-10T14:07:53;13.70;;;7.37;;
16450;SDS011;12243;42.708;23.310;2024-01-10T14:10:20;12.40;;;6.47;;
16450;SDS011;12243;42.708;23.310;2024-01-10T14:12:47;11.10;;;6.87;;
16450;SDS011;12243;42.708;23.310;2024-01-10T14:15:15;17.53;;;7.00;;
16450;SDS011;12243;42.708;23.310;2024-01-10T14:17:42;13.30;;;6.80;;
16450;SDS011;12243;42.708;23.310;2024-01-10T14:20:09;38.50;;;13.83;;
16450;SDS011;12243;42.708;23.310;2024-01-10T14:22:38;10.80;;;6.63;;
16450;SDS011;12243;42.708;23.310;2024-01-10T14:25:07;14.40;;;7.00;;
16450;SDS011;12243;42.708;23.310;2024-01-10T14:27:35;10.07;;;6.27;;
16450;SDS011;12243;42.708;23.310;2024-01-10T14:30:05;11.30;;;6.57;;
16450;SDS011;12243;42.708;23.310;2024-01-10T14:32:36;8.07;;;6.40;;
16450;SDS011;12243;42.708;23.310;2024-01-10T14:35:03;10.67;;;6.73;;
16450;SDS011;12243;42.708;23.310;2024-01-10T14:37:31;11.37;;;7.13;;